Time;durP1;ratioP1;P1;durP2;ratioP2;P2;SDS_P1;SDS_P2;PMS_P1;PMS_P2;Temp;Humidity;BMP_temperature;BMP_pressure;BME280_temperature;BME280_humidity;BME280_pressure;Samples;Min_cycle;Max_cycle;Signal;HPM_P1;HPM_P2
2021/03/24 00:00:51;;;;;;;44.90;21.45;;;6.80;99.90;;;;;;5011140;28;20049;-58
2021/03/24 00:03:17;;;;;;;43.85;21.52;;;6.80;99.90;;;;;;5010459;28;20041;-57
2021/03/24 00:05:47;;;;;;;39.97;20.00;;;6.80;99.90;;;;;;5011380;28;20041;-58
2021/03/24 00:08:13;;;;;;;42.13;21.77;;;6.70;99.90;;;;;;5011080;28;20026;-57
2021/03/24 00:10:39;;;;;;;42.13;21.27;;;6.70;99.90;;;;;;5010962;28;20137;-58
2021/03/24 00:13:08;;;;;;;50.70;22.08;;;6.60;99.90;;;;;;5010701;28;20447;-57
2021/03/24 00:15:34;;;;;;;45.72;20.85;;;6.60;99.90;;;;;;5011131;28;20069;-58
2021/03/24 00:18:01;;;;;;;42.25;21.67;;;6.60;99.90;;;;;;5011226;28;20030;-54
2021/03/24 00:20:32;;;;;;;47.80;20.50;;;6.60;99.90;;;;;;5010704;28;20022;-55
2021/03/24 00:22:59;;;;;;;41.25;21.90;;;6.60;99.90;;;;;;5010825;28;20046;-57
2021/03/24 00:25:25;;;;;;;46.33;22.42;;;6.60;99.90;;;;;;5011356;28;20491;-57
2021/03/24 00:27:51;;;;;;;43.17;21.52;;;6.60;99.90;;;;;;5010643;28;20030;-56
2021/03/24 00:30:22;;;;;;;39.05;21.83;;;6.60;99.90;;;;;;5009349;28;20026;-57
2021/03/24 00:32:48;;;;;;;46.90;22.73;;;6.50;99.90;;;;;;5011045;28;20026;-59
2021/03/24 00:35:14;;;;;;;50.55;23.23;;;6.60;99.90;;;;;;5010840;28;20396;-58
2021/03/24 00:37:40;;;;;;;47.70;23.00;;;6.60;99.90;;;;;;5011225;28;20034;-55
2021/03/24 00:40:13;;;;;;;43.50;22.38;;;6.50;99.90;;;;;;5011258;28;20088;-59
2021/03/24 00:42:38;;;;;;;44.67;21.75;;;6.50;99.90;;;;;;5010873;28;20164;-57
2021/03/24 00:45:05;;;;;;;43.95;22.92;;;6.60;99.90;;;;;;5011307;28;20112;-57
2021/03/24 00:47:31;;;;;;;51.50;23.35;;;6.50;99.90;;;;;;5010718;28;20026;-56
2021/03/24 00:49:57;;;;;;;45.80;22.63;;;6.40;99.90;;;;;;5011740;28;20495;-58
2021/03/24 00:52:22;;;;;;;43.40;23.85;;;6.40;99.90;;;;;;5014674;28;20040;-56
2021/03/24 00:54:48;;;;;;;48.45;23.75;;;6.40;99.90;;;;;;5015201;28;20053;-57
2021/03/24 00:57:14;;;;;;;44.55;22.90;;;6.40;99.90;;;;;;5015221;28;20053;-57
2021/03/24 00:59:40;;;;;;;49.40;23.40;;;6.30;99.90;;;;;;5015044;28;20022;-58
2021/03/24 01:02:06;;;;;;;49.17;22.55;;;6.30;99.90;;;;;;5014268;28;20033;-58
2021/03/24 01:04:31;;;;;;;49.13;22.92;;;6.30;99.90;;;;;;4997673;28;20029;-56
2021/03/24 01:06:57;;;;;;;48.15;23.95;;;6.30;99.90;;;;;;5013499;28;20034;-54
2021/03/24 01:09:22;;;;;;;50.50;24.70;;;6.30;99.90;;;;;;5014853;28;20675;-56
2021/03/24 01:11:48;;;;;;;48.88;23.65;;;6.20;99.90;;;;;;5014702;28;20103;-56
2021/03/24 01:14:14;;;;;;;46.28;24.23;;;6.20;99.90;;;;;;5025076;28;20418;-57
2021/03/24 01:16:40;;;;;;;47.88;22.65;;;6.20;99.90;;;;;;5018509;28;20156;-54
2021/03/24 01:19:06;;;;;;;47.17;23.92;;;6.20;99.90;;;;;;5022882;28;20030;-56
2021/03/24 01:21:31;;;;;;;53.70;23.38;;;6.20;99.90;;;;;;5014242;28;20038;-57
2021/03/24 01:23:57;;;;;;;47.70;23.23;;;6.20;99.90;;;;;;5014666;28;20117;-58
2021/03/24 01:26:23;;;;;;;46.25;24.00;;;6.10;99.90;;;;;;5013643;28;20446;-58
2021/03/24 01:28:57;;;;;;;46.08;24.25;;;6.00;99.90;;;;;;5014144;28;20064;-57
2021/03/24 01:31:25;;;;;;;53.35;23.92;;;6.00;99.90;;;;;;5013895;28;20041;-56
2021/03/24 01:33:51;;;;;;;57.00;25.25;;;6.00;99.90;;;;;;5013429;28;20030;-54
2021/03/24 01:36:17;;;;;;;55.83;25.80;;;6.00;99.90;;;;;;5013459;28;20042;-58
2021/03/24 01:38:42;;;;;;;48.88;24.25;;;6.00;99.90;;;;;;5014573;28;20140;-60
2021/03/24 01:41:08;;;;;;;49.95;23.63;;;6.10;99.90;;;;;;5014045;28;20037;-57
2021/03/24 01:43:36;;;;;;;50.30;24.52;;;6.10;99.90;;;;;;5014382;28;20089;-58
2021/03/24 01:46:19;;;;;;;49.08;24.55;;;6.10;99.90;;;;;;5014020;28;20037;-57
2021/03/24 01:49:01;;;;;;;47.05;24.65;;;6.00;99.90;;;;;;5008094;28;20091;-58
2021/03/24 01:51:31;;;;;;;51.08;24.15;;;6.00;99.90;;;;;;5028758;28;20846;-58
2021/03/24 01:53:57;;;;;;;48.40;24.70;;;5.90;99.90;;;;;;5014033;28;20041;-57
2021/03/24 01:56:26;;;;;;;51.72;25.23;;;6.00;99.90;;;;;;5013606;28;20025;-56
2021/03/24 01:58:53;;;;;;;47.38;24.15;;;6.00;99.90;;;;;;5014140;28;20038;-56
2021/03/24 02:01:20;;;;;;;50.97;23.23;;;5.90;99.90;;;;;;5013237;28;20041;-54
2021/03/24 02:03:47;;;;;;;46.42;23.25;;;6.00;99.90;;;;;;5013286;28;20053;-57
2021/03/24 02:06:22;;;;;;;57.60;26.17;;;6.00;99.90;;;;;;5013379;28;20038;-58
2021/03/24 02:09:05;;;;;;;47.90;24.40;;;6.00;99.90;;;;;;5014132;28;20034;-54
2021/03/24 02:11:41;;;;;;;53.65;25.23;;;5.90;99.90;;;;;;5013231;28;20488;-57
2021/03/24 02:14:25;;;;;;;51.20;24.65;;;5.80;99.90;;;;;;5013660;28;20037;-57
2021/03/24 02:16:53;;;;;;;54.47;25.95;;;5.70;99.90;;;;;;5010557;28;20022;-57
2021/03/24 02:19:22;;;;;;;47.95;25.27;;;5.70;99.90;;;;;;5013571;28;20050;-57
2021/03/24 02:21:48;;;;;;;59.60;26.13;;;5.80;99.90;;;;;;5012589;28;20045;-55
2021/03/24 02:24:38;;;;;;;54.80;25.60;;;5.70;99.90;;;;;;5010987;28;20018;-52
2021/03/24 02:27:20;;;;;;;57.42;25.98;;;5.80;99.90;;;;;;5012971;28;20480;-54
2021/03/24 02:29:59;;;;;;;53.55;26.73;;;5.80;99.90;;;;;;5013207;28;20033;-56
2021/03/24 02:32:28;;;;;;;52.30;24.40;;;5.70;99.90;;;;;;5012598;28;20064;-56
2021/03/24 02:35:00;;;;;;;58.15;27.10;;;5.80;99.90;;;;;;5011352;28;20092;-56
2021/03/24 02:37:28;;;;;;;60.53;26.63;;;5.70;99.90;;;;;;5009327;28;20056;-58
2021/03/24 02:39:55;;;;;;;51.53;25.17;;;5.70;99.90;;;;;;5012128;28;20026;-59
2021/03/24 02:42:22;;;;;;;54.35;26.77;;;5.60;99.90;;;;;;5013447;28;20037;-57
2021/03/24 02:44:47;;;;;;;57.38;26.58;;;5.60;99.90;;;;;;5012925;28;20096;-54
2021/03/24 02:47:15;;;;;;;54.80;26.90;;;5.60;99.90;;;;;;5012765;28;20030;-59
2021/03/24 02:49:43;;;;;;;60.55;27.00;;;5.50;99.90;;;;;;5012767;28;20041;-56
2021/03/24 02:52:11;;;;;;;62.15;27.30;;;5.40;99.90;;;;;;5012987;28;20053;-58
2021/03/24 02:54:39;;;;;;;50.08;26.35;;;5.50;99.90;;;;;;5010479;28;20551;-55
2021/03/24 02:57:05;;;;;;;61.05;26.73;;;5.50;99.90;;;;;;5012060;28;20598;-57
2021/03/24 02:59:31;;;;;;;56.42;26.33;;;5.50;99.90;;;;;;5012777;28;20037;-57
2021/03/24 03:02:11;;;;;;;62.75;25.88;;;5.50;99.90;;;;;;5012435;28;20021;-58
2021/03/24 03:04:47;;;;;;;57.78;25.08;;;5.50;99.90;;;;;;5011736;28;20392;-53
2021/03/24 03:07:19;;;;;;;62.70;26.58;;;5.50;99.90;;;;;;5012919;28;20034;-56
2021/03/24 03:10:04;;;;;;;57.92;25.83;;;5.50;99.90;;;;;;5011687;28;20116;-57
2021/03/24 03:13:06;;;;;;;62.83;25.80;;;5.60;99.90;;;;;;5012525;28;20396;-55
2021/03/24 03:15:38;;;;;;;57.25;26.90;;;5.60;99.90;;;;;;5001172;28;20072;-56
2021/03/24 03:18:08;;;;;;;54.28;27.08;;;5.50;99.90;;;;;;5012229;28;20061;-57
2021/03/24 03:20:43;;;;;;;54.83;25.60;;;5.50;99.90;;;;;;5012381;28;20092;-57
2021/03/24 03:23:30;;;;;;;58.17;27.67;;;5.50;99.90;;;;;;5014857;28;20104;-57
2021/03/24 03:26:06;;;;;;;53.97;25.80;;;5.50;99.90;;;;;;5000913;28;20373;-56
2021/03/24 03:28:35;;;;;;;56.53;26.58;;;5.50;99.90;;;;;;5011598;28;20107;-54
2021/03/24 03:31:06;;;;;;;63.35;27.80;;;5.50;99.90;;;;;;5011982;28;20503;-55
2021/03/24 03:33:36;;;;;;;55.42;26.00;;;5.40;99.90;;;;;;4994021;28;20056;-58
2021/03/24 03:36:02;;;;;;;55.60;26.63;;;5.40;99.90;;;;;;5014391;28;20040;-52
2021/03/24 03:38:30;;;;;;;55.17;26.85;;;5.40;99.90;;;;;;5011878;28;20034;-58
2021/03/24 03:40:58;;;;;;;59.90;28.48;;;5.40;99.90;;;;;;5011033;28;20036;-57
2021/03/24 03:43:25;;;;;;;61.40;28.13;;;5.50;99.90;;;;;;5011946;28;20076;-58
2021/03/24 03:45:53;;;;;;;60.65;28.38;;;5.50;99.90;;;;;;5012204;28;20041;-54
2021/03/24 03:48:20;;;;;;;64.35;29.00;;;5.50;99.90;;;;;;4994444;28;20088;-54
2021/03/24 03:50:51;;;;;;;63.42;28.55;;;5.50;99.90;;;;;;5011522;28;20038;-57
2021/03/24 03:53:49;;;;;;;73.93;29.00;;;5.50;99.90;;;;;;5020775;28;20022;-54
2021/03/24 03:56:17;;;;;;;63.03;29.38;;;5.50;99.90;;;;;;5002343;28;20149;-55
2021/03/24 03:58:48;;;;;;;72.97;28.92;;;5.50;99.90;;;;;;5011889;28;20483;-56
2021/03/24 04:01:23;;;;;;;62.33;28.17;;;5.50;99.90;;;;;;5011256;28;20057;-56
2021/03/24 04:03:51;;;;;;;;;;;5.50;99.90;;;;;;5012221;28;20026;-56
2021/03/24 04:06:29;;;;;;;67.75;29.52;;;5.50;99.90;;;;;;5011636;28;20299;-55
2021/03/24 04:08:56;;;;;;;59.42;30.38;;;5.50;99.90;;;;;;5011470;28;20037;-56
2021/03/24 04:11:24;;;;;;;69.60;30.35;;;5.50;99.90;;;;;;5010748;28;20034;-57
2021/03/24 04:13:54;;;;;;;69.05;30.02;;;5.50;99.90;;;;;;5011714;28;20032;-56
2021/03/24 04:16:21;;;;;;;67.40;30.42;;;5.60;99.90;;;;;;5011345;28;20033;-57
2021/03/24 04:18:54;;;;;;;65.95;30.73;;;5.60;99.90;;;;;;5011229;28;20030;-57
2021/03/24 04:21:22;;;;;;;75.60;32.03;;;5.60;99.90;;;;;;5012521;28;20026;-57
2021/03/24 04:23:56;;;;;;;69.05;29.77;;;5.60;99.90;;;;;;5015082;28;20034;-57
2021/03/24 04:26:26;;;;;;;69.78;30.77;;;5.60;99.90;;;;;;5020099;28;20081;-56
2021/03/24 04:28:57;;;;;;;68.32;30.73;;;5.70;99.90;;;;;;5027147;28;20037;-58
2021/03/24 04:31:27;;;;;;;66.72;29.83;;;5.70;99.90;;;;;;5016891;28;20128;-57
2021/03/24 04:33:53;;;;;;;63.42;29.95;;;5.70;99.90;;;;;;5022509;28;20033;-56
2021/03/24 04:36:34;;;;;;;75.60;31.52;;;5.70;99.90;;;;;;5018615;28;20045;-56
2021/03/24 04:39:05;;;;;;;63.60;29.85;;;5.70;99.90;;;;;;5005419;28;20076;-57
2021/03/24 04:41:37;;;;;;;68.97;30.45;;;5.70;99.90;;;;;;5017586;28;20025;-56
2021/03/24 04:44:18;;;;;;;72.10;30.40;;;5.80;99.90;;;;;;5027955;28;20052;-57
2021/03/24 04:46:46;;;;;;;70.68;31.88;;;5.80;99.90;;;;;;5010841;28;20077;-58
2021/03/24 04:49:20;;;;;;;78.32;32.55;;;5.80;99.90;;;;;;5017987;28;20131;-54
2021/03/24 04:51:47;;;;;;;72.47;32.13;;;5.90;99.90;;;;;;5031043;28;20025;-54
2021/03/24 04:54:32;;;;;;;76.25;32.33;;;5.90;99.90;;;;;;5003381;28;20121;-56
2021/03/24 04:57:09;;;;;;;73.50;32.13;;;5.90;99.90;;;;;;5020642;28;20125;-57
2021/03/24 04:59:41;;;;;;;69.95;33.42;;;5.90;99.90;;;;;;5020785;28;20040;-56
2021/03/24 05:02:18;;;;;;;80.07;34.10;;;6.00;99.90;;;;;;5028694;28;20038;-58
2021/03/24 05:04:56;;;;;;;73.50;31.48;;;6.00;99.90;;;;;;5029321;28;20393;-57
2021/03/24 05:07:42;;;;;;;75.38;32.90;;;6.00;99.90;;;;;;5024974;28;20379;-56
2021/03/24 05:10:13;;;;;;;66.47;33.28;;;6.00;99.90;;;;;;5013683;28;20049;-57
2021/03/24 05:12:42;;;;;;;73.85;33.15;;;6.10;99.90;;;;;;5014353;28;20049;-56
2021/03/24 05:15:16;;;;;;;74.95;32.53;;;6.10;99.90;;;;;;5016881;28;20041;-57
2021/03/24 05:17:43;;;;;;;80.05;34.92;;;6.10;99.90;;;;;;5019491;28;20134;-58
2021/03/24 05:20:21;;;;;;;78.95;33.13;;;6.10;99.90;;;;;;5014573;28;20038;-58
2021/03/24 05:22:47;;;;;;;78.25;33.67;;;6.10;99.90;;;;;;5017817;28;20496;-56
2021/03/24 05:25:17;;;;;;;74.13;34.13;;;6.10;99.90;;;;;;5015341;28;20029;-58
2021/03/24 05:27:48;;;;;;;70.85;32.90;;;6.10;99.90;;;;;;5014816;28;20133;-57
2021/03/24 05:30:25;;;;;;;73.82;34.08;;;6.10;99.90;;;;;;5014071;28;20080;-58
2021/03/24 05:33:05;;;;;;;82.80;34.15;;;6.00;99.90;;;;;;5024319;28;20069;-59
2021/03/24 05:35:42;;;;;;;76.50;35.17;;;6.00;99.90;;;;;;5015868;28;20117;-56
2021/03/24 05:38:17;;;;;;;84.10;35.03;;;6.00;99.90;;;;;;5015003;28;20030;-54
2021/03/24 05:41:02;;;;;;;74.38;34.47;;;6.00;99.90;;;;;;5001881;28;20044;-55
2021/03/24 05:43:30;;;;;;;74.45;34.25;;;5.90;99.90;;;;;;5019183;28;20472;-53
2021/03/24 05:46:13;;;;;;;76.70;35.05;;;5.80;99.90;;;;;;5033048;28;20030;-57
2021/03/24 05:48:58;;;;;;;85.32;34.25;;;5.70;99.90;;;;;;5020270;28;20041;-57
2021/03/24 05:51:58;;;;;;;83.20;36.67;;;5.80;99.90;;;;;;5014803;28;20618;-56
2021/03/24 05:55:01;;;;;;;75.95;33.75;;;5.80;99.90;;;;;;5030837;28;20037;-57
2021/03/24 05:57:59;;;;;;;83.75;36.67;;;5.80;99.90;;;;;;5003177;28;20500;-57
2021/03/24 06:00:36;;;;;;;80.03;34.58;;;5.80;99.90;;;;;;5003253;28;20484;-57
2021/03/24 06:03:36;;;;;;;82.13;36.30;;;5.90;99.90;;;;;;5019922;28;20030;-54
2021/03/24 06:06:14;;;;;;;86.43;35.88;;;5.90;99.90;;;;;;4979507;28;20185;-54
2021/03/24 06:08:42;;;;;;;76.00;35.08;;;5.90;99.90;;;;;;5012722;28;20038;-57
2021/03/24 06:11:31;;;;;;;87.72;35.60;;;5.90;99.90;;;;;;5021195;28;20116;-54
2021/03/24 06:14:06;;;;;;;84.57;35.45;;;5.90;99.90;;;;;;5007338;28;20034;-58
2021/03/24 06:17:02;;;;;;;79.68;35.42;;;5.90;99.90;;;;;;5031240;28;20029;-56
2021/03/24 06:19:33;;;;;;;84.07;35.75;;;5.90;99.90;;;;;;5010453;28;20056;-57
2021/03/24 06:22:17;;;;;;;86.57;37.13;;;5.90;99.90;;;;;;5029974;28;20053;-58
2021/03/24 06:24:58;;;;;;;76.00;35.15;;;5.90;99.90;;;;;;5024587;28;20462;-53
2021/03/24 06:27:36;;;;;;;77.50;35.50;;;5.90;99.90;;;;;;5024098;28;20369;-51
2021/03/24 06:30:16;;;;;;;92.20;36.30;;;5.90;99.90;;;;;;5015692;28;20082;-55
2021/03/24 06:33:19;;;;;;;81.13;36.13;;;6.00;99.90;;;;;;5013665;28;20034;-57
2021/03/24 06:36:04;;;;;;;82.40;35.90;;;5.90;99.90;;;;;;5014443;28;20034;-58
2021/03/24 06:38:46;;;;;;;85.03;34.55;;;5.90;99.90;;;;;;5019664;28;20038;-54
2021/03/24 06:41:44;;;;;;;79.45;34.63;;;6.00;99.90;;;;;;5024397;28;20025;-57
2021/03/24 06:44:36;;;;;;;83.55;35.45;;;6.10;99.90;;;;;;5015402;28;20033;-58
2021/03/24 06:47:21;;;;;;;83.85;35.47;;;6.20;99.90;;;;;;5025861;28;20475;-57
2021/03/24 06:50:11;;;;;;;82.97;35.50;;;6.20;99.90;;;;;;5028304;28;20041;-57
2021/03/24 06:52:48;;;;;;;80.40;33.65;;;6.30;99.90;;;;;;5014494;28;20044;-52
2021/03/24 06:55:50;;;;;;;74.53;33.72;;;6.30;99.90;;;;;;5024826;28;20496;-58
2021/03/24 06:59:06;;;;;;;84.28;36.65;;;6.30;99.90;;;;;;5028074;28;20033;-55
2021/03/24 07:01:47;;;;;;;84.90;33.60;;;6.30;99.90;;;;;;4995147;28;20048;-57
2021/03/24 07:04:31;;;;;;;89.97;34.83;;;6.30;99.90;;;;;;5013154;28;20034;-55
2021/03/24 07:07:22;;;;;;;77.30;36.10;;;6.40;99.90;;;;;;5020955;28;20036;-57
2021/03/24 07:10:22;;;;;;;86.63;34.33;;;6.30;99.90;;;;;;5019359;28;20368;-56
2021/03/24 07:13:25;;;;;;;89.45;36.10;;;6.40;99.90;;;;;;5016861;28;20026;-57
2021/03/24 07:15:53;;;;;;;78.80;33.75;;;6.50;99.90;;;;;;5025402;28;20543;-55
2021/03/24 07:18:45;;;;;;;80.65;34.30;;;6.60;99.90;;;;;;5023853;28;20052;-55
2021/03/24 07:21:49;;;;;;;74.15;33.58;;;6.60;99.90;;;;;;5020892;28;20052;-56
2021/03/24 07:24:44;;;;;;;74.07;33.70;;;6.80;99.90;;;;;;5022361;28;20050;-57
2021/03/24 07:27:35;;;;;;;64.30;24.90;;;6.90;99.90;;;;;;5001484;28;20450;-56
2021/03/24 07:30:21;;;;;;;88.43;32.00;;;7.00;99.90;;;;;;5021982;28;20271;-57
2021/03/24 07:33:25;;;;;;;77.38;31.00;;;7.10;99.90;;;;;;5008238;28;20030;-55
2021/03/24 07:36:12;;;;;;;75.43;32.67;;;7.20;99.90;;;;;;4931368;29;20039;-56
2021/03/24 07:39:09;;;;;;;63.45;28.83;;;7.30;99.90;;;;;;5015541;28;20766;-56
2021/03/24 07:41:46;;;;;;;76.03;29.42;;;7.40;99.90;;;;;;5020561;28;20064;-56
2021/03/24 07:44:47;;;;;;;74.78;30.42;;;7.40;99.90;;;;;;5019782;28;20047;-57
2021/03/24 07:47:19;;;;;;;65.13;29.88;;;7.40;99.90;;;;;;5017457;28;20388;-55
2021/03/24 07:50:09;;;;;;;66.90;29.15;;;7.50;99.90;;;;;;5006933;28;20109;-54
2021/03/24 07:52:53;;;;;;;64.75;28.85;;;7.50;99.90;;;;;;5007463;28;20045;-56
2021/03/24 07:55:43;;;;;;;67.95;29.33;;;7.50;99.90;;;;;;5007951;28;20113;-57
2021/03/24 07:58:27;;;;;;;71.25;31.10;;;7.60;99.90;;;;;;5007708;28;20034;-57
2021/03/24 08:01:21;;;;;;;72.30;28.20;;;7.70;99.90;;;;;;5011212;28;20022;-58
2021/03/24 08:04:19;;;;;;;57.65;28.50;;;7.80;99.90;;;;;;5021241;28;20785;-58
2021/03/24 08:07:13;;;;;;;58.80;26.67;;;7.90;99.90;;;;;;5006931;28;20060;-55
2021/03/24 08:09:57;;;;;;;63.97;28.52;;;8.10;99.90;;;;;;5010235;28;20048;-58
2021/03/24 08:12:54;;;;;;;64.13;25.58;;;8.20;99.90;;;;;;5010039;28;20050;-57
2021/03/24 08:15:53;;;;;;;56.97;26.65;;;8.30;99.90;;;;;;5009841;28;20034;-57
2021/03/24 08:18:48;;;;;;;62.42;27.35;;;8.40;99.90;;;;;;5022602;28;20038;-57
2021/03/24 08:21:38;;;;;;;66.00;27.10;;;8.50;99.90;;;;;;5011555;28;20088;-59
2021/03/24 08:24:12;;;;;;;63.42;27.15;;;8.60;99.90;;;;;;5009100;28;20041;-56
2021/03/24 08:26:45;;;;;;;57.67;26.90;;;8.80;99.90;;;;;;5009986;28;20129;-55
2021/03/24 08:29:33;;;;;;;68.00;32.38;;;8.90;99.90;;;;;;5009863;28;20160;-58
2021/03/24 08:32:29;;;;;;;57.60;26.13;;;8.90;99.90;;;;;;4990847;28;20434;-57
2021/03/24 08:35:23;;;;;;;64.78;28.05;;;8.90;99.90;;;;;;5008671;28;20034;-58
2021/03/24 08:38:03;;;;;;;70.78;28.88;;;9.10;99.90;;;;;;5009179;28;20049;-55
2021/03/24 08:40:41;;;;;;;61.88;30.88;;;9.30;99.90;;;;;;5009592;28;20492;-59
2021/03/24 08:43:51;;;;;;;58.85;30.08;;;9.50;99.90;;;;;;5010291;28;20782;-57
2021/03/24 08:46:39;;;;;;;71.05;31.70;;;9.70;99.90;;;;;;5003834;28;20042;-55
2021/03/24 08:49:15;;;;;;;72.38;30.45;;;9.90;99.90;;;;;;5003955;28;20042;-57
2021/03/24 08:52:05;;;;;;;59.05;29.85;;;10.10;99.90;;;;;;5009280;28;20033;-58
2021/03/24 08:54:45;;;;;;;59.13;29.20;;;10.40;99.90;;;;;;5009303;28;20116;-59
2021/03/24 08:57:32;;;;;;;61.45;27.65;;;10.40;99.90;;;;;;5010715;28;20041;-55
2021/03/24 09:00:22;;;;;;;73.57;34.20;;;10.50;99.90;;;;;;5008947;28;20117;-58
2021/03/24 09:02:56;;;;;;;72.68;30.65;;;10.70;99.90;;;;;;5009776;28;20030;-58
2021/03/24 09:05:29;;;;;;;66.75;31.50;;;10.80;99.90;;;;;;5008004;28;20038;-58
2021/03/24 09:08:19;;;;;;;60.90;29.67;;;11.10;99.90;;;;;;5010300;28;20403;-55
2021/03/24 09:11:18;;;;;;;63.75;29.70;;;11.20;99.90;;;;;;5013838;28;20088;-59
2021/03/24 09:13:46;;;;;;;68.70;30.52;;;11.20;99.90;;;;;;5013037;28;20030;-58
2021/03/24 09:16:21;;;;;;;59.25;27.55;;;11.10;99.90;;;;;;5012886;28;20065;-56
2021/03/24 09:19:13;;;;;;;61.90;28.05;;;11.10;99.90;;;;;;5014107;28;20809;-58
2021/03/24 09:22:29;;;;;;;60.65;26.67;;;11.10;99.90;;;;;;5014206;28;20064;-56
2021/03/24 09:25:36;;;;;;;63.20;26.85;;;11.20;99.90;;;;;;4972272;28;20116;-58
2021/03/24 09:28:15;;;;;;;58.20;27.08;;;11.20;99.90;;;;;;5024426;28;20050;-55
2021/03/24 09:31:00;;;;;;;52.88;25.45;;;11.20;99.90;;;;;;5031682;28;20100;-56
2021/03/24 09:33:48;;;;;;;52.57;24.50;;;11.10;99.90;;;;;;5030641;28;20087;-56
2021/03/24 09:36:37;;;;;;;50.53;24.10;;;11.10;99.90;;;;;;5032128;28;20422;-58
2021/03/24 09:39:23;;;;;;;54.97;25.15;;;11.20;99.90;;;;;;5031428;28;20041;-57
2021/03/24 09:42:00;;;;;;;49.92;25.38;;;11.20;99.90;;;;;;5030894;28;20111;-59
2021/03/24 09:44:34;;;;;;;57.63;24.80;;;11.30;99.90;;;;;;5032811;28;20052;-58
2021/03/24 09:47:00;;;;;;;49.30;25.70;;;11.30;99.90;;;;;;5028931;28;20029;-57
2021/03/24 09:49:40;;;;;;;55.83;23.58;;;11.50;99.90;;;;;;5029357;28;20029;-58
2021/03/24 09:52:15;;;;;;;52.75;26.27;;;11.40;99.90;;;;;;5029614;28;20032;-57
2021/03/24 09:55:00;;;;;;;50.38;23.92;;;11.40;99.90;;;;;;5032595;28;20163;-56
2021/03/24 09:57:49;;;;;;;56.08;25.35;;;11.50;99.90;;;;;;5031938;28;20537;-57
2021/03/24 10:00:18;;;;;;;53.95;24.17;;;11.50;99.90;;;;;;5035928;28;20492;-55
2021/03/24 10:02:55;;;;;;;52.45;23.27;;;11.50;99.90;;;;;;5032832;28;20079;-57
2021/03/24 10:05:39;;;;;;;55.53;23.95;;;11.60;99.90;;;;;;5032497;28;20079;-56
2021/03/24 10:08:16;;;;;;;49.55;24.02;;;11.60;99.90;;;;;;5032984;28;20495;-59
2021/03/24 10:10:44;;;;;;;53.15;24.48;;;11.60;99.90;;;;;;5032372;28;20468;-58
2021/03/24 10:13:13;;;;;;;52.03;23.10;;;11.70;99.90;;;;;;5032220;28;20030;-58
2021/03/24 10:15:46;;;;;;;53.95;22.48;;;11.70;99.90;;;;;;5032448;28;20522;-57
2021/03/24 10:18:31;;;;;;;48.58;21.70;;;11.80;99.90;;;;;;5031727;28;20079;-58
2021/03/24 10:21:14;;;;;;;48.90;21.93;;;11.90;99.90;;;;;;5030396;28;20514;-56
2021/03/24 10:23:45;;;;;;;49.33;22.38;;;12.00;99.90;;;;;;5032399;28;20316;-58
2021/03/24 10:26:30;;;;;;;52.42;21.50;;;12.20;99.90;;;;;;5032815;28;20033;-59
2021/03/24 10:28:58;;;;;;;52.33;21.67;;;12.30;99.90;;;;;;5030188;28;20104;-57
2021/03/24 10:31:36;;;;;;;42.60;20.08;;;12.60;99.90;;;;;;5032711;28;20043;-55
2021/03/24 10:34:29;;;;;;;47.38;20.15;;;12.70;99.90;;;;;;5033583;28;20132;-59
2021/03/24 10:37:14;;;;;;;47.50;20.33;;;12.80;99.90;;;;;;5021470;28;20057;-58
2021/03/24 10:40:11;;;;;;;36.40;18.70;;;12.70;99.90;;;;;;5032944;28;20044;-54
2021/03/24 10:42:52;;;;;;;43.22;18.75;;;12.70;99.90;;;;;;5031244;28;20048;-58
2021/03/24 10:45:35;;;;;;;52.83;20.10;;;12.80;99.90;;;;;;5027637;28;20104;-57
2021/03/24 10:48:16;;;;;;;34.17;18.20;;;12.90;99.90;;;;;;5032574;28;20038;-56
2021/03/24 10:50:56;;;;;;;38.65;18.73;;;12.90;99.90;;;;;;5032751;28;20030;-59
2021/03/24 10:53:31;;;;;;;44.22;19.15;;;12.90;99.90;;;;;;5032347;28;20032;-55
2021/03/24 10:56:13;;;;;;;38.22;18.83;;;12.90;99.90;;;;;;5033009;28;20040;-57
2021/03/24 10:58:53;;;;;;;40.65;18.27;;;12.90;99.90;;;;;;5031718;28;20444;-56
2021/03/24 11:01:37;;;;;;;40.47;19.10;;;12.80;99.90;;;;;;5033019;28;20038;-56
2021/03/24 11:04:11;;;;;;;43.42;19.50;;;12.80;99.90;;;;;;5032891;28;20379;-56
2021/03/24 11:07:02;;;;;;;43.90;18.67;;;12.80;99.90;;;;;;5031681;28;20112;-57
2021/03/24 11:10:02;;;;;;;45.47;19.70;;;12.70;99.90;;;;;;4996187;28;20045;-54
2021/03/24 11:12:38;;;;;;;42.42;18.15;;;12.70;99.90;;;;;;5002920;28;20048;-56
2021/03/24 11:15:13;;;;;;;38.88;18.38;;;12.70;99.90;;;;;;5032434;28;20371;-57
2021/03/24 11:17:41;;;;;;;40.60;17.08;;;12.70;99.90;;;;;;5032354;28;20029;-56
2021/03/24 11:20:12;;;;;;;34.92;16.42;;;12.70;99.90;;;;;;5032471;28;20091;-59
2021/03/24 11:22:44;;;;;;;35.78;17.25;;;12.70;99.90;;;;;;5020101;28;20391;-56
2021/03/24 11:25:32;;;;;;;35.00;18.00;;;12.70;99.90;;;;;;5012537;28;20030;-58
2021/03/24 11:28:07;;;;;;;37.10;18.02;;;12.80;99.90;;;;;;4999517;28;20029;-60
2021/03/24 11:30:47;;;;;;;35.42;16.65;;;12.90;99.90;;;;;;5012458;28;20033;-58
2021/03/24 11:33:34;;;;;;;32.47;16.77;;;13.00;99.90;;;;;;5011401;28;20056;-57
2021/03/24 11:36:25;;;;;;;34.65;15.70;;;13.00;99.90;;;;;;5011225;28;20046;-58
2021/03/24 11:39:02;;;;;;;34.97;16.30;;;13.10;99.90;;;;;;4999508;28;20124;-58
2021/03/24 11:41:32;;;;;;;37.00;17.95;;;13.10;99.90;;;;;;5012036;28;20145;-58
2021/03/24 11:44:12;;;;;;;41.17;18.23;;;13.10;99.90;;;;;;5011253;28;20034;-60
2021/03/24 11:46:43;;;;;;;36.13;16.02;;;13.10;99.90;;;;;;5012055;28;20079;-57
2021/03/24 11:49:15;;;;;;;35.00;15.98;;;13.10;99.90;;;;;;4987953;28;20068;-57
2021/03/24 11:52:27;;;;;;;31.00;14.93;;;13.10;99.90;;;;;;5011936;28;20030;-57
2021/03/24 11:55:12;;;;;;;33.92;14.30;;;13.20;99.90;;;;;;5011595;28;20022;-56
2021/03/24 11:58:15;;;;;;;33.30;15.25;;;13.20;99.90;;;;;;5011082;28;20048;-57
2021/03/24 12:00:52;;;;;;;28.50;14.93;;;13.20;99.90;;;;;;4998556;28;20022;-56
2021/03/24 12:03:39;;;;;;;32.45;15.45;;;13.10;99.90;;;;;;5011459;28;20037;-57
2021/03/24 12:06:16;;;;;;;33.97;15.57;;;13.10;99.90;;;;;;5000781;28;20029;-57
2021/03/24 12:08:54;;;;;;;41.80;16.92;;;13.20;99.90;;;;;;5011686;28;20038;-57
2021/03/24 12:11:32;;;;;;;30.30;14.68;;;13.20;99.90;;;;;;5011321;28;20049;-55
2021/03/24 12:14:12;;;;;;;34.40;13.73;;;13.20;99.90;;;;;;5011071;28;20017;-57
2021/03/24 12:16:48;;;;;;;26.25;11.65;;;13.20;99.90;;;;;;5003428;28;20109;-54
2021/03/24 12:19:38;;;;;;;33.00;13.77;;;13.10;99.90;;;;;;5011470;28;20057;-57
2021/03/24 12:22:30;;;;;;;40.22;15.07;;;13.10;99.90;;;;;;5010929;28;20042;-58
2021/03/24 12:25:20;;;;;;;27.10;13.52;;;13.20;99.90;;;;;;5011484;28;20179;-56
2021/03/24 12:28:00;;;;;;;27.95;13.80;;;13.30;99.90;;;;;;5002821;28;20387;-57
2021/03/24 12:30:29;;;;;;;27.92;13.27;;;13.20;99.90;;;;;;5010573;28;20384;-59
2021/03/24 12:33:13;;;;;;;29.30;13.40;;;13.30;99.90;;;;;;5011269;28;20049;-57
2021/03/24 12:35:40;;;;;;;23.80;12.45;;;13.30;99.90;;;;;;5011122;28;20415;-57
2021/03/24 12:38:16;;;;;;;23.35;11.75;;;13.30;99.90;;;;;;5011176;28;20443;-58
2021/03/24 12:40:50;;;;;;;21.23;10.80;;;13.30;99.90;;;;;;5011544;28;20040;-59
2021/03/24 12:43:27;;;;;;;22.80;11.90;;;13.40;99.90;;;;;;5009191;28;20079;-56
2021/03/24 12:45:53;;;;;;;23.35;10.77;;;13.40;99.90;;;;;;5011254;28;20042;-57
2021/03/24 12:48:24;;;;;;;31.55;12.02;;;13.50;99.90;;;;;;5014951;28;20034;-57
2021/03/24 12:51:04;;;;;;;27.25;11.77;;;13.60;99.90;;;;;;5014877;28;20063;-55
2021/03/24 12:54:00;;;;;;;19.92;10.80;;;13.60;99.90;;;;;;5014733;28;20022;-57
2021/03/24 12:56:41;;;;;;;;;;;13.70;99.90;;;;;;5012712;28;20030;-58
2021/03/24 12:59:34;;;;;;;19.27;9.65;;;13.70;99.90;;;;;;5010816;28;19913;-57
2021/03/24 13:02:30;;;;;;;24.20;11.43;;;13.70;99.90;;;;;;4996637;28;20044;-56
2021/03/24 13:05:23;;;;;;;20.67;9.43;;;13.60;99.90;;;;;;5013922;28;20079;-58
2021/03/24 13:08:19;;;;;;;22.80;9.68;;;13.70;99.90;;;;;;5013195;28;20096;-57
2021/03/24 13:10:45;;;;;;;17.02;9.45;;;13.80;99.90;;;;;;5014584;28;20136;-57
2021/03/24 13:13:35;;;;;;;15.25;8.60;;;13.90;99.90;;;;;;5014009;28;20033;-60
2021/03/24 13:16:25;;;;;;;21.77;9.60;;;13.90;99.90;;;;;;5012415;28;20036;-55
2021/03/24 13:19:20;;;;;;;28.48;9.00;;;13.80;99.90;;;;;;5014666;28;20037;-55
2021/03/24 13:22:07;;;;;;;25.77;8.82;;;13.80;99.90;;;;;;5005971;28;20041;-56
2021/03/24 13:25:07;;;;;;;18.23;8.93;;;13.80;99.90;;;;;;5027045;28;20365;-57
2021/03/24 13:28:06;;;;;;;18.30;9.02;;;13.80;99.90;;;;;;5018365;28;20488;-57
2021/03/24 13:30:41;;;;;;;17.10;9.05;;;13.90;99.90;;;;;;5008523;28;20037;-58
2021/03/24 13:33:19;;;;;;;22.58;9.40;;;13.80;99.90;;;;;;5016594;28;20468;-57